Warning: Javascript must be enabled to use all the features on this page!


Page Loading - Please Wait...

Click to hideNews Bulletins

Peak Streamflow for the Nation

USGS 10032000 SMITHS FORK NEAR BORDER, WY

Lincoln County, Wyoming
Hydrologic Unit Code 16010102
Latitude  42°17'36", Longitude 110°52'18" NAD27
Drainage area 165  square miles
Gage datum 6,705.72 feet above NAVD88
Output formats
Table
Graph
Tab-separated file
peakfq (watstore) format
Reselect output format
Water
Year
Date Gage
Height
(feet)
Stream-
flow
(cfs)
1942 1942-05-27 3.433 579
1943 1943-05-30 4.293 935
1944 1944-06-10 3.753 772
1945 1945-06-23 3.373 666
1946 1946-04-26 3.893,6 859
1947 1947-05-09 4.213 1,120
1948 1948-05-20 4.163 1,100
1949 1949-05-29 3.573 743
1950 1950-06-07 4.453 1,180
1951 1951-05-29 4.563 1,360
1952 1952-05-08 3.913 976
1953 1953-06-15 3.803 988
1954 1954-05-22 3.563 832
1955 1955-06-10 3.563 587
1956 1956-06-02 4.293 1,260
1957 1957-06-07 4.563 1,500
1958 1958-05-28 4.133 1,150
1959 1959-06-16 3.493 697
1960 1960-05-13 3.503 710
1961 1961-05-28 2.842,3 370
1962 1962-05-09 4.023 1,080
1963 1963-05-26 3.522,3 728
1964 1964-06-08 4.173 1,190
1965 1965-06-13 4.423 1,350
1966 1966-05-10 3.733 759
1967 1967-06-20 4.243 1,040
1968 1968-06-05 3.883 780
1969 1969-05-13 4.032,3 908
1970 1970-05-28 4.033 932
1971 1971-06-18 5.613 1,610
1972 1972-06-07 5.303 1,440
1973 1973-05-20 4.323 840
1974 1974-05-30 4.793 1,150
1975 1975-06-07 4.803 1,080
1976 1976-05-15 4.583 1,040
1977 1977-06-05 2.223 128
1978 1978-06-10 4.883 1,240
1979 1979-05-29 4.373 911
1980 1980-05-24 4.513 998
1981 1981-06-03   4811
1982 1982-05-28 4.963 1,490
1983 1983-05-29 5.453 1,870
1984 1984-05-16 5.523 1,820
1985 1985-05-11 3.833 620
1986 1986-06-04 5.663 2,100
1987 1987-05-21   3531
1988 1988-05-17 3.38 586
1989 1989-05-10   6501
1990 1990-06-12   4801
1991 1991-06-08 5.52 803
1992 1992-05-21 2.85 333
1993 1993-05-26 4.26 1,240
1994 1994-05-14 3.13 455
1995 1995-06-15 3.88 1,090
1996 1996-06-10 4.19 1,420
1997 1997-05-16 4.19 1,650
1998 1998-06-04 3.01 798
1999 1999-05-30 3.70 1,440
2000 2000-05-25 2.80 674
2001 2001-05-17 2.24 424
2002 2002-06-01 2.39 485
2003 2003-05-30 2.82 697
2004 2004-06-10 2.32 461
2005 2005-05-23 3.48 1,060
2006 2006-05-21 3.33 962
2007 2007-05-21 2.29 392
2008 2008-05-21 2.98 733
2009 2009-06-03 3.19 1,010
2010 2010-06-08 2.90 797
2011 2011-06-25 3.66 1,370
2012 2012-05-18 2.15 431
2013 2013-05-18 2.33 516
2014 2014-05-29 3.32 1,140
2015 2015-06-02 2.77 760
2016 2016-05-09 3.55 1,330
2017 2017-05-13 3.71 1,670
2018 2018-05-27 2.72 768
2019 2019-06-08 3.002 979
2020 2020-06-01 2.90 900
?
  Peak Gage-Height Qualification Codes.
?
  Peak Streamflow Qualification Codes.